Time;durP1;ratioP1;P1;durP2;ratioP2;P2;SDS_P1;SDS_P2;PMS_P1;PMS_P2;Temp;Humidity;BMP_temperature;BMP_pressure;BME280_temperature;BME280_humidity;BME280_pressure;Samples;Min_cycle;Max_cycle;Signal;HPM_P1;HPM_P2
2022/01/11 00:01:26;;;;;;;5.57;2.92;;;9.40;99.90;;;;;;5096333;28;20040;-57
2022/01/11 00:03:54;;;;;;;7.85;4.18;;;9.40;99.90;;;;;;5111993;28;20115;-56
2022/01/11 00:09:00;;;;;;;12.43;4.05;;;9.40;99.90;;;;;;5118627;27;20036;-58
2022/01/11 00:11:28;;;;;;;8.93;4.65;;;9.40;99.90;;;;;;5106754;28;20048;-58
2022/01/11 00:13:55;;;;;;;11.88;4.97;;;9.50;99.90;;;;;;5096521;28;20044;-58
2022/01/11 00:16:23;;;;;;;6.75;4.05;;;9.50;99.90;;;;;;5095424;28;22182;-59
2022/01/11 00:18:51;;;;;;;8.05;3.50;;;9.50;99.90;;;;;;5105519;28;20040;-58
2022/01/11 00:21:19;;;;;;;11.63;3.97;;;9.60;99.90;;;;;;5104065;28;20055;-59
2022/01/11 00:26:15;;;;;;;8.15;3.28;;;9.60;99.90;;;;;;5112995;28;20043;-58
2022/01/11 00:28:43;;;;;;;6.13;3.92;;;9.60;99.90;;;;;;5113402;28;20106;-58
2022/01/11 00:31:20;;;;;;;7.35;4.78;;;9.60;99.90;;;;;;5095885;28;20046;-59
2022/01/11 00:33:50;;;;;;;9.95;3.50;;;9.70;99.90;;;;;;5104535;27;20038;-58
2022/01/11 00:36:17;;;;;;;9.05;3.63;;;9.60;99.90;;;;;;5096136;28;20032;-59
2022/01/11 00:38:46;;;;;;;7.80;3.65;;;9.70;99.90;;;;;;5091834;28;20028;-59
2022/01/11 00:41:15;;;;;;;8.20;4.05;;;9.70;99.90;;;;;;5090000;28;20058;-58
2022/01/11 00:43:43;;;;;;;9.35;5.10;;;9.70;99.90;;;;;;5092921;28;20044;-57
2022/01/11 00:46:12;;;;;;;14.20;5.95;;;9.70;99.90;;;;;;5102233;28;20039;-58
2022/01/11 00:48:40;;;;;;;10.88;5.43;;;9.70;99.90;;;;;;5111046;27;20035;-59
2022/01/11 00:51:09;;;;;;;11.98;5.30;;;9.70;99.90;;;;;;5113507;27;20489;-59
2022/01/11 00:53:42;;;;;;;8.45;4.93;;;9.70;99.90;;;;;;5095116;28;20048;-59
2022/01/11 00:56:10;;;;;;;16.85;5.20;;;9.80;99.90;;;;;;5107987;28;20036;-58
2022/01/11 00:58:37;;;;;;;13.15;5.90;;;9.70;99.90;;;;;;5112750;28;20110;-59
2022/01/11 01:01:05;;;;;;;12.88;5.28;;;9.70;99.90;;;;;;5097772;27;20039;-58
2022/01/11 01:03:33;;;;;;;11.60;4.95;;;9.70;99.90;;;;;;5106169;27;20044;-59
2022/01/11 01:06:01;;;;;;;12.80;4.30;;;9.80;99.90;;;;;;5070987;28;20039;-58
2022/01/11 01:08:30;;;;;;;10.35;5.13;;;9.70;99.90;;;;;;5093937;28;20082;-60
2022/01/11 01:10:58;;;;;;;12.25;4.97;;;9.80;99.90;;;;;;5090511;28;20067;-58
2022/01/11 01:13:32;;;;;;;11.70;4.10;;;9.70;99.90;;;;;;5082078;28;20089;-59
2022/01/11 01:16:05;;;;;;;12.68;4.50;;;9.80;99.90;;;;;;5095969;28;20087;-58
2022/01/11 01:18:48;;;;;;;11.68;4.25;;;9.70;99.90;;;;;;5090481;28;20048;-58
2022/01/11 01:21:17;;;;;;;11.80;4.28;;;9.80;99.90;;;;;;5095118;28;20079;-59
2022/01/11 01:23:45;;;;;;;13.13;4.97;;;9.80;99.90;;;;;;5094395;28;20429;-59
2022/01/11 01:26:16;;;;;;;12.00;4.82;;;9.90;99.90;;;;;;5079160;28;20101;-59
2022/01/11 01:28:47;;;;;;;13.68;4.30;;;9.90;99.90;;;;;;5079146;28;20071;-59
2022/01/11 01:31:15;;;;;;;11.63;4.20;;;9.90;99.90;;;;;;5092133;27;20110;-59
2022/01/11 01:33:43;;;;;;;16.27;5.43;;;9.90;99.90;;;;;;5102117;28;20561;-59
2022/01/11 01:36:11;;;;;;;16.00;4.03;;;9.90;99.90;;;;;;5101814;28;20405;-59
2022/01/11 01:38:40;;;;;;;9.82;4.18;;;9.90;99.90;;;;;;5090565;28;20036;-60
2022/01/11 01:41:14;;;;;;;16.40;5.45;;;9.90;99.90;;;;;;5106503;28;20127;-58
2022/01/11 01:43:43;;;;;;;8.65;4.53;;;9.90;99.90;;;;;;5077262;28;20040;-59
2022/01/11 01:46:11;;;;;;;13.45;5.82;;;10.00;99.90;;;;;;5095036;28;20042;-57
2022/01/11 01:48:38;;;;;;;13.10;4.78;;;10.00;99.90;;;;;;5111486;28;20440;-56
2022/01/11 01:51:08;;;;;;;13.10;5.15;;;9.90;99.90;;;;;;5092650;28;20493;-59
2022/01/11 01:53:38;;;;;;;15.90;5.60;;;9.90;99.90;;;;;;5094930;28;20395;-58
2022/01/11 01:56:06;;;;;;;10.30;5.28;;;9.90;99.90;;;;;;5094842;28;20070;-56
2022/01/11 01:58:34;;;;;;;10.95;4.38;;;10.00;99.90;;;;;;5078566;28;20237;-57
2022/01/11 02:01:04;;;;;;;21.98;5.35;;;10.00;99.90;;;;;;5096351;28;20071;-58
2022/01/11 02:03:37;;;;;;;11.30;5.32;;;9.90;99.90;;;;;;5096379;28;20051;-58
2022/01/11 02:06:08;;;;;;;8.52;3.83;;;9.90;99.90;;;;;;5114272;28;20093;-58
2022/01/11 02:08:36;;;;;;;14.70;5.78;;;9.90;99.90;;;;;;5096321;28;20142;-57
2022/01/11 02:11:05;;;;;;;10.77;4.90;;;9.90;99.90;;;;;;5096169;28;20048;-57
2022/01/11 02:13:33;;;;;;;11.35;4.70;;;9.90;99.90;;;;;;5095794;28;20032;-58
2022/01/11 02:16:04;;;;;;;28.00;7.28;;;9.90;99.90;;;;;;5096461;28;20035;-57
2022/01/11 02:18:33;;;;;;;12.63;5.00;;;9.90;99.90;;;;;;5095927;28;20092;-57
2022/01/11 02:21:11;;;;;;;21.10;6.35;;;9.90;99.90;;;;;;5079343;28;20494;-58
2022/01/11 02:23:40;;;;;;;15.43;4.80;;;10.00;99.90;;;;;;5095748;28;20051;-57
2022/01/11 02:26:09;;;;;;;11.95;4.75;;;10.00;99.90;;;;;;5079092;28;20070;-58
2022/01/11 02:28:39;;;;;;;9.45;3.88;;;10.00;99.90;;;;;;5095908;28;20044;-58
2022/01/11 02:31:12;;;;;;;9.63;4.75;;;10.00;99.90;;;;;;5095902;28;20096;-58
2022/01/11 02:33:46;;;;;;;12.10;5.35;;;10.00;99.90;;;;;;5095996;28;20046;-58
2022/01/11 02:36:30;;;;;;;24.77;5.82;;;10.00;99.90;;;;;;5097540;28;20090;-58
2022/01/11 02:39:07;;;;;;;15.15;3.70;;;10.10;99.90;;;;;;5095875;28;20047;-58
2022/01/11 02:41:47;;;;;;;8.35;3.50;;;10.10;99.90;;;;;;5095757;28;20043;-58
2022/01/11 02:44:16;;;;;;;8.20;4.68;;;10.00;99.90;;;;;;5079277;28;20035;-58
2022/01/11 02:46:44;;;;;;;12.18;5.25;;;10.10;99.90;;;;;;5113934;28;20043;-58
2022/01/11 02:49:12;;;;;;;15.23;5.53;;;10.10;99.90;;;;;;5098562;28;20068;-58
2022/01/11 02:51:45;;;;;;;11.40;4.72;;;10.10;99.90;;;;;;5082984;28;20082;-59
2022/01/11 02:54:13;;;;;;;7.68;4.43;;;10.10;99.90;;;;;;5118023;28;20393;-58
2022/01/11 02:56:43;;;;;;;10.40;4.03;;;10.20;99.90;;;;;;5099592;28;20067;-59
2022/01/11 02:59:11;;;;;;;15.00;4.30;;;10.20;99.90;;;;;;5099634;28;20097;-58
2022/01/11 03:01:39;;;;;;;5.63;3.35;;;10.10;99.90;;;;;;5118051;28;20497;-59
2022/01/11 03:04:08;;;;;;;13.52;4.53;;;10.10;99.90;;;;;;5099801;28;20044;-58
2022/01/11 03:06:35;;;;;;;7.35;4.10;;;10.20;99.90;;;;;;5099413;28;20089;-59
2022/01/11 03:09:03;;;;;;;11.82;4.22;;;10.20;99.90;;;;;;5099618;28;20110;-59
2022/01/11 03:11:33;;;;;;;9.45;4.30;;;10.20;99.90;;;;;;5099400;28;20081;-58
2022/01/11 03:14:03;;;;;;;11.82;3.95;;;10.20;99.90;;;;;;5099678;28;20058;-58
2022/01/11 03:16:31;;;;;;;10.18;3.70;;;10.20;99.90;;;;;;5099288;28;20071;-59
2022/01/11 03:19:00;;;;;;;11.07;3.97;;;10.20;99.90;;;;;;5082256;28;20075;-59
2022/01/11 03:21:28;;;;;;;9.68;4.28;;;10.20;99.90;;;;;;5082422;28;20044;-58
2022/01/11 03:23:57;;;;;;;11.93;4.65;;;10.20;99.90;;;;;;5099172;28;20040;-59
2022/01/11 03:26:25;;;;;;;9.32;3.17;;;10.10;99.90;;;;;;5082504;28;20051;-59
2022/01/11 03:28:53;;;;;;;10.02;4.40;;;10.10;99.90;;;;;;5099357;28;20048;-59
2022/01/11 03:31:23;;;;;;;9.93;4.10;;;10.20;99.90;;;;;;5099235;28;20039;-59
2022/01/11 03:33:51;;;;;;;14.07;5.20;;;10.20;99.90;;;;;;5117192;28;20047;-59
2022/01/11 03:36:19;;;;;;;10.57;4.65;;;10.20;99.90;;;;;;5082688;28;20423;-59
2022/01/11 03:38:48;;;;;;;11.32;4.30;;;10.10;99.90;;;;;;5099207;28;20130;-59
2022/01/11 03:41:16;;;;;;;11.68;5.28;;;10.10;99.90;;;;;;5098991;28;20508;-59
2022/01/11 03:43:44;;;;;;;10.48;4.78;;;10.10;99.90;;;;;;5098437;28;20044;-58
2022/01/11 03:46:17;;;;;;;12.23;4.43;;;10.10;99.90;;;;;;5081761;28;20053;-58
2022/01/11 03:48:45;;;;;;;9.80;5.10;;;10.20;99.90;;;;;;5116919;28;20375;-58
2022/01/11 03:51:14;;;;;;;17.70;5.63;;;10.20;99.90;;;;;;5082079;28;20040;-59
2022/01/11 03:54:07;;;;;;;8.02;4.15;;;10.20;99.90;;;;;;5098705;28;20473;-59
2022/01/11 03:56:39;;;;;;;10.50;4.70;;;10.20;99.90;;;;;;5099145;28;20532;-59
2022/01/11 03:59:15;;;;;;;13.68;4.10;;;10.20;99.90;;;;;;5098111;28;20145;-59
2022/01/11 04:01:44;;;;;;;9.82;3.63;;;10.20;99.90;;;;;;5098433;28;20511;-59
2022/01/11 04:04:12;;;;;;;12.80;4.25;;;10.20;99.90;;;;;;5098605;28;20486;-59
2022/01/11 04:06:40;;;;;;;12.13;4.32;;;10.10;99.90;;;;;;5098950;28;20054;-59
2022/01/11 04:09:09;;;;;;;7.20;4.05;;;10.20;99.90;;;;;;5098289;28;20051;-59
2022/01/11 04:11:37;;;;;;;11.27;4.15;;;10.10;99.90;;;;;;5098233;28;20043;-59
2022/01/11 04:14:04;;;;;;;15.88;5.05;;;10.20;99.90;;;;;;5116355;28;20071;-58
2022/01/11 04:16:32;;;;;;;14.13;3.90;;;10.20;99.90;;;;;;5116429;28;20043;-59
2022/01/11 04:19:02;;;;;;;13.50;3.88;;;10.10;99.90;;;;;;5098438;28;20123;-59
2022/01/11 04:21:30;;;;;;;9.88;4.68;;;10.20;99.90;;;;;;5098195;28;20038;-59
2022/01/11 04:23:59;;;;;;;11.20;4.50;;;10.20;99.90;;;;;;5098070;28;20114;-58
2022/01/11 04:26:27;;;;;;;9.95;4.25;;;10.20;99.90;;;;;;5097893;28;20039;-59
2022/01/11 04:28:59;;;;;;;18.98;6.47;;;10.20;99.90;;;;;;5097882;28;20036;-59
2022/01/11 04:31:27;;;;;;;15.15;4.38;;;10.20;99.90;;;;;;5080915;28;20079;-59
2022/01/11 04:33:54;;;;;;;16.98;5.82;;;10.20;99.90;;;;;;5115954;28;20063;-59
2022/01/11 04:36:22;;;;;;;11.15;5.57;;;10.20;99.90;;;;;;5097808;28;20043;-59
2022/01/11 04:38:50;;;;;;;15.98;5.10;;;10.20;99.90;;;;;;5098140;28;20035;-59
2022/01/11 04:41:17;;;;;;;8.25;4.30;;;10.20;99.90;;;;;;5064223;28;20386;-59
2022/01/11 04:43:49;;;;;;;16.83;6.32;;;10.30;99.90;;;;;;5097774;28;20043;-56
2022/01/11 04:46:18;;;;;;;11.68;5.18;;;10.20;99.90;;;;;;5115897;28;20036;-57
2022/01/11 04:48:53;;;;;;;9.07;4.35;;;10.20;99.90;;;;;;5097908;28;20374;-58
2022/01/11 04:51:21;;;;;;;8.98;4.75;;;10.20;99.90;;;;;;5080492;28;20067;-58
2022/01/11 04:53:50;;;;;;;13.90;5.13;;;10.30;99.90;;;;;;5080697;28;20564;-59
2022/01/11 04:56:20;;;;;;;14.70;6.78;;;10.30;99.90;;;;;;5097366;28;20043;-59
2022/01/11 04:58:48;;;;;;;10.55;4.53;;;10.30;99.90;;;;;;5080894;28;20062;-59
2022/01/11 05:01:15;;;;;;;10.85;4.50;;;10.30;99.90;;;;;;5097677;28;20104;-58
2022/01/11 05:03:44;;;;;;;8.75;3.72;;;10.30;99.90;;;;;;5097368;28;20130;-59
2022/01/11 05:06:12;;;;;;;10.30;4.55;;;10.30;99.90;;;;;;5097235;28;20044;-59
2022/01/11 05:08:40;;;;;;;9.05;3.45;;;10.30;99.90;;;;;;5097121;28;20051;-58
2022/01/11 05:11:09;;;;;;;11.00;4.95;;;10.30;99.90;;;;;;5079856;28;20466;-58
2022/01/11 05:13:37;;;;;;;13.15;5.32;;;10.40;99.90;;;;;;5097024;28;20047;-59
2022/01/11 05:16:26;;;;;;;11.88;4.63;;;10.40;99.90;;;;;;5096803;28;20044;-59
2022/01/11 05:18:53;;;;;;;10.02;4.45;;;10.40;99.90;;;;;;5096708;28;20482;-59
2022/01/11 05:21:22;;;;;;;16.52;5.90;;;10.50;99.90;;;;;;5097050;28;20366;-58
2022/01/11 05:23:50;;;;;;;8.50;3.85;;;10.50;99.90;;;;;;5097104;28;20062;-59
2022/01/11 05:26:17;;;;;;;13.07;4.55;;;10.50;99.90;;;;;;5097227;28;20044;-59
2022/01/11 05:28:45;;;;;;;8.85;4.53;;;10.50;99.90;;;;;;5114999;28;20046;-59
2022/01/11 05:31:12;;;;;;;15.27;5.38;;;10.50;99.90;;;;;;5096900;28;20043;-57
2022/01/11 05:33:40;;;;;;;14.35;5.63;;;10.50;99.90;;;;;;5096689;28;20039;-57
2022/01/11 05:36:08;;;;;;;13.10;4.72;;;10.50;99.90;;;;;;5114719;28;20135;-58
2022/01/11 05:38:37;;;;;;;9.80;4.93;;;10.50;99.90;;;;;;5096639;28;20404;-58
2022/01/11 05:41:04;;;;;;;10.25;4.57;;;10.40;99.90;;;;;;5114797;28;20439;-58
2022/01/11 05:43:32;;;;;;;14.57;4.97;;;10.40;99.90;;;;;;5096379;28;20040;-58
2022/01/11 05:45:59;;;;;;;11.38;5.13;;;10.40;99.90;;;;;;5096352;28;20035;-57
2022/01/11 05:48:27;;;;;;;10.07;5.35;;;10.40;99.90;;;;;;5096414;28;20035;-57
2022/01/11 05:50:55;;;;;;;8.80;5.63;;;10.40;99.90;;;;;;5114529;28;20044;-58
2022/01/11 05:53:23;;;;;;;12.68;4.88;;;10.40;99.90;;;;;;5079725;28;20052;-58
2022/01/11 05:55:51;;;;;;;14.65;4.75;;;10.50;99.90;;;;;;5096276;28;20040;-58
2022/01/11 05:58:19;;;;;;;8.98;3.88;;;10.50;99.90;;;;;;5078776;28;20051;-59
2022/01/11 06:00:47;;;;;;;12.80;4.72;;;10.50;99.90;;;;;;5096203;28;20039;-58
2022/01/11 06:03:16;;;;;;;14.88;4.95;;;10.50;99.90;;;;;;5079090;28;20043;-58
2022/01/11 06:05:47;;;;;;;11.35;5.50;;;10.50;99.90;;;;;;5096372;28;20485;-58
2022/01/11 06:08:18;;;;;;;9.23;4.65;;;10.50;99.90;;;;;;5096472;28;20500;-58
2022/01/11 06:10:47;;;;;;;13.18;5.30;;;10.50;99.90;;;;;;5096166;28;20126;-58
2022/01/11 06:13:18;;;;;;;11.07;4.70;;;10.50;99.90;;;;;;5096058;28;20039;-58
2022/01/11 06:15:47;;;;;;;10.02;4.15;;;10.50;99.90;;;;;;5095958;28;20043;-58
2022/01/11 06:18:17;;;;;;;15.32;5.68;;;10.60;99.90;;;;;;5096042;28;20494;-59
2022/01/11 06:21:06;;;;;;;12.85;5.45;;;10.60;99.90;;;;;;5096081;28;20124;-58
2022/01/11 06:23:35;;;;;;;13.15;5.38;;;10.50;99.90;;;;;;5078803;28;20047;-58
2022/01/11 06:26:03;;;;;;;11.50;4.43;;;10.50;99.90;;;;;;5095967;28;20048;-58
2022/01/11 06:28:30;;;;;;;17.13;5.53;;;10.50;99.90;;;;;;5096252;28;20035;-58
2022/01/11 06:30:58;;;;;;;10.18;3.90;;;10.50;99.90;;;;;;5096043;28;20039;-58
2022/01/11 06:33:26;;;;;;;10.63;5.65;;;10.40;99.90;;;;;;5079101;28;20043;-58
2022/01/11 06:35:53;;;;;;;10.15;4.70;;;10.40;99.90;;;;;;5078774;28;20138;-58
2022/01/11 06:38:21;;;;;;;11.55;4.55;;;10.40;99.90;;;;;;5095506;28;20036;-58
2022/01/11 06:40:49;;;;;;;14.00;4.65;;;10.50;99.90;;;;;;5078359;28;20052;-58
2022/01/11 06:43:17;;;;;;;10.18;4.05;;;10.40;99.90;;;;;;5094957;28;20051;-58
2022/01/11 06:45:45;;;;;;;9.75;5.53;;;10.50;99.90;;;;;;5095614;28;20039;-59
2022/01/11 06:48:16;;;;;;;13.73;4.63;;;10.50;99.90;;;;;;5079496;28;20039;-59
2022/01/11 06:50:44;;;;;;;12.13;5.20;;;10.50;99.90;;;;;;5113755;28;20092;-59
2022/01/11 06:53:12;;;;;;;5.30;3.50;;;10.40;99.90;;;;;;5095653;28;20113;-59
2022/01/11 06:55:44;;;;;;;11.02;4.90;;;10.50;99.90;;;;;;5095624;28;20050;-59
2022/01/11 06:58:13;;;;;;;13.13;5.13;;;10.50;99.90;;;;;;5079042;28;20052;-59
2022/01/11 07:00:41;;;;;;;8.63;3.67;;;10.50;99.90;;;;;;5095706;28;20035;-59
2022/01/11 07:03:15;;;;;;;11.68;4.95;;;10.50;99.90;;;;;;5095882;28;20040;-59
2022/01/11 07:05:48;;;;;;;20.45;6.70;;;10.50;99.90;;;;;;5095565;28;20066;-59
2022/01/11 07:08:17;;;;;;;11.65;5.45;;;10.50;99.90;;;;;;5079045;28;20501;-59
2022/01/11 07:10:46;;;;;;;13.10;4.57;;;10.50;99.90;;;;;;5079265;28;20047;-59
2022/01/11 07:13:13;;;;;;;10.27;4.20;;;10.60;99.90;;;;;;5095465;28;20044;-59
2022/01/11 07:15:41;;;;;;;16.40;4.80;;;10.60;99.90;;;;;;5095489;28;20040;-59
2022/01/11 07:18:12;;;;;;;6.40;3.42;;;10.60;99.90;;;;;;5095433;28;20035;-59
2022/01/11 07:20:44;;;;;;;11.07;4.82;;;10.60;99.90;;;;;;5095491;28;20362;-59
2022/01/11 07:23:19;;;;;;;11.75;4.68;;;10.60;99.90;;;;;;5095534;28;20040;-59
2022/01/11 07:25:48;;;;;;;13.85;4.97;;;10.60;99.90;;;;;;5113563;28;20040;-58
2022/01/11 07:28:15;;;;;;;9.73;5.95;;;10.70;99.90;;;;;;5095430;28;20027;-59
2022/01/11 07:30:46;;;;;;;10.07;5.03;;;10.70;99.90;;;;;;5095381;28;20501;-59
2022/01/11 07:33:14;;;;;;;16.92;6.35;;;10.60;99.90;;;;;;5095221;28;20032;-59
2022/01/11 07:35:42;;;;;;;12.73;5.15;;;10.60;99.90;;;;;;5098241;28;20064;-59
2022/01/11 07:38:11;;;;;;;8.95;4.57;;;10.60;99.90;;;;;;5082292;28;20113;-58
2022/01/11 07:40:40;;;;;;;12.10;5.15;;;10.60;99.90;;;;;;5098678;28;20040;-58
2022/01/11 07:43:26;;;;;;;9.60;4.28;;;10.60;99.90;;;;;;5098862;28;20050;-59
2022/01/11 07:45:55;;;;;;;11.32;4.50;;;10.70;99.90;;;;;;5082320;28;20494;-59
2022/01/11 07:48:30;;;;;;;15.50;4.43;;;10.70;99.90;;;;;;5098683;28;20063;-59
2022/01/11 07:51:03;;;;;;;6.07;3.88;;;10.70;99.90;;;;;;5098795;28;20051;-59
2022/01/11 07:53:34;;;;;;;11.13;5.05;;;10.70;99.90;;;;;;5098714;28;20489;-59
2022/01/11 07:56:06;;;;;;;9.45;3.78;;;10.70;99.90;;;;;;5098643;28;20482;-58
2022/01/11 07:58:36;;;;;;;17.83;5.25;;;10.70;99.90;;;;;;5098789;28;20573;-59
2022/01/11 08:01:04;;;;;;;11.45;4.40;;;10.80;99.90;;;;;;5081801;28;20051;-59
2022/01/11 08:03:37;;;;;;;10.57;4.05;;;10.80;99.90;;;;;;5082711;28;20085;-59
2022/01/11 08:06:10;;;;;;;15.50;5.40;;;10.80;99.90;;;;;;5098477;28;20039;-59
2022/01/11 08:08:41;;;;;;;10.50;4.32;;;10.80;99.90;;;;;;5081489;28;20494;-59
2022/01/11 08:11:10;;;;;;;12.10;3.80;;;10.80;99.90;;;;;;5081643;28;20511;-59
2022/01/11 08:13:39;;;;;;;16.80;5.93;;;10.80;99.90;;;;;;5098540;28;21060;-57
2022/01/11 08:16:08;;;;;;;18.23;4.63;;;10.80;99.90;;;;;;5098170;28;20050;-58
2022/01/11 08:18:36;;;;;;;12.23;5.15;;;10.80;99.90;;;;;;5098328;28;20067;-57
2022/01/11 08:21:04;;;;;;;10.18;4.55;;;10.80;99.90;;;;;;5116076;28;20401;-58
2022/01/11 08:23:33;;;;;;;9.88;4.03;;;10.90;99.90;;;;;;5116212;28;20044;-57
2022/01/11 08:26:03;;;;;;;9.00;4.28;;;10.80;99.90;;;;;;5098063;28;20051;-58
2022/01/11 08:28:31;;;;;;;10.65;5.32;;;10.80;99.90;;;;;;5098140;28;20040;-58
2022/01/11 08:31:02;;;;;;;12.68;6.00;;;10.90;99.90;;;;;;5098167;28;20044;-58
2022/01/11 08:33:35;;;;;;;11.15;4.43;;;10.80;99.90;;;;;;5097950;28;20042;-58
2022/01/11 08:36:04;;;;;;;11.55;5.30;;;10.90;99.90;;;;;;5097908;28;20050;-58
2022/01/11 08:38:37;;;;;;;16.02;5.57;;;10.80;99.90;;;;;;5098129;28;20039;-58
2022/01/11 08:41:09;;;;;;;14.48;5.40;;;10.80;99.90;;;;;;5098111;28;20043;-58
2022/01/11 08:43:38;;;;;;;10.50;4.70;;;10.80;99.90;;;;;;5097579;28;20040;-58
2022/01/11 08:46:07;;;;;;;9.25;5.35;;;10.90;99.90;;;;;;5113598;28;20105;-58
2022/01/11 08:48:53;;;;;;;19.98;5.15;;;10.90;99.90;;;;;;5097105;28;20039;-58
2022/01/11 08:51:21;;;;;;;16.63;5.85;;;10.90;99.90;;;;;;5115665;28;20122;-58
2022/01/11 08:53:48;;;;;;;16.50;6.15;;;10.90;99.90;;;;;;5079549;28;20421;-58
2022/01/11 08:56:17;;;;;;;13.07;6.55;;;11.00;99.90;;;;;;5092908;28;20044;-59
2022/01/11 08:58:47;;;;;;;10.98;4.95;;;11.00;99.90;;;;;;5095585;28;20032;-58
2022/01/11 09:01:26;;;;;;;8.30;4.35;;;11.00;99.90;;;;;;5095078;28;20397;-59
2022/01/11 09:03:55;;;;;;;11.52;5.68;;;11.00;99.90;;;;;;5078499;28;20047;-60
2022/01/11 09:06:24;;;;;;;7.80;5.13;;;11.00;99.90;;;;;;5077976;28;20043;-59
2022/01/11 09:09:06;;;;;;;12.45;5.97;;;11.00;99.90;;;;;;5083555;28;20046;-59
2022/01/11 09:11:34;;;;;;;15.38;6.32;;;11.00;99.90;;;;;;5092091;28;20042;-58
2022/01/11 09:14:01;;;;;;;23.13;6.25;;;11.00;99.90;;;;;;5110592;28;20043;-59
2022/01/11 09:16:29;;;;;;;10.23;4.28;;;11.10;99.90;;;;;;5094128;28;20036;-59
2022/01/11 09:18:57;;;;;;;16.08;4.65;;;11.10;99.90;;;;;;5076454;27;20549;-59
2022/01/11 09:21:25;;;;;;;12.50;5.13;;;11.00;99.90;;;;;;5101801;28;20477;-58
2022/01/11 09:23:53;;;;;;;11.05;5.45;;;11.10;99.90;;;;;;5107586;28;20040;-59
2022/01/11 09:26:24;;;;;;;9.27;4.18;;;11.10;99.90;;;;;;5092675;28;20546;-59
2022/01/11 09:28:56;;;;;;;16.15;7.97;;;11.10;99.90;;;;;;5071669;28;20386;-59
2022/01/11 09:31:25;;;;;;;14.45;6.15;;;11.10;99.90;;;;;;5083242;28;20098;-59
2022/01/11 09:33:57;;;;;;;16.88;5.80;;;11.10;99.90;;;;;;5076733;28;20059;-58
2022/01/11 09:36:25;;;;;;;20.98;6.45;;;11.10;99.90;;;;;;5092081;28;20089;-59
2022/01/11 09:38:54;;;;;;;14.93;6.20;;;11.10;99.90;;;;;;5102479;28;20040;-58
2022/01/11 09:41:21;;;;;;;12.63;5.30;;;11.10;99.90;;;;;;5105736;28;20134;-59
2022/01/11 09:43:50;;;;;;;14.82;5.60;;;11.10;99.90;;;;;;5078986;28;20043;-58
2022/01/11 09:46:19;;;;;;;18.75;7.70;;;11.10;99.90;;;;;;5077631;28;20105;-59
2022/01/11 09:48:48;;;;;;;8.23;4.90;;;11.10;99.90;;;;;;5090763;28;20359;-59
2022/01/11 09:51:21;;;;;;;8.90;4.00;;;11.10;99.90;;;;;;5094306;28;20042;-59
2022/01/11 09:53:49;;;;;;;10.35;4.65;;;11.20;99.90;;;;;;5093218;28;20044;-60
2022/01/11 09:56:17;;;;;;;22.92;5.97;;;11.20;99.90;;;;;;5092832;28;20046;-59
2022/01/11 09:58:45;;;;;;;15.25;5.10;;;11.30;99.90;;;;;;5094010;28;20490;-59
2022/01/11 10:01:32;;;;;;;19.58;6.47;;;11.30;99.90;;;;;;5110246;28;20035;-60
2022/01/11 10:04:12;;;;;;;12.55;5.85;;;11.40;99.90;;;;;;5109488;27;20489;-59
2022/01/11 10:07:13;;;;;;;13.60;6.30;;;11.40;99.90;;;;;;5091397;28;20039;-59
2022/01/11 10:09:52;;;;;;;14.50;5.53;;;11.50;99.90;;;;;;5078335;28;20089;-59
2022/01/11 10:12:22;;;;;;;23.23;7.50;;;11.60;99.90;;;;;;5113711;28;20069;-59
2022/01/11 10:14:53;;;;;;;22.02;6.85;;;11.60;99.90;;;;;;5096387;28;20501;-56
2022/01/11 10:17:30;;;;;;;30.80;8.40;;;11.80;99.90;;;;;;5062098;28;20386;-58
2022/01/11 10:20:03;;;;;;;18.13;7.20;;;11.90;99.90;;;;;;5095892;28;20085;-59
2022/01/11 10:22:32;;;;;;;11.98;5.88;;;12.00;99.90;;;;;;5095922;28;20477;-61
2022/01/11 10:25:03;;;;;;;12.77;5.53;;;12.00;99.90;;;;;;5079300;28;20036;-61
2022/01/11 10:27:36;;;;;;;10.98;5.35;;;11.90;99.90;;;;;;5079788;28;20045;-61
2022/01/11 10:30:16;;;;;;;10.90;5.90;;;11.80;99.90;;;;;;5062678;28;20054;-60
2022/01/11 10:32:56;;;;;;;14.20;4.18;;;11.70;99.90;;;;;;5080477;28;20067;-61
2022/01/11 10:35:33;;;;;;;17.15;5.32;;;11.60;99.90;;;;;;5096470;28;20048;-61
2022/01/11 10:38:39;;;;;;;13.57;5.68;;;11.60;99.90;;;;;;5073267;28;20054;-61
2022/01/11 10:41:12;;;;;;;14.27;6.25;;;11.50;99.90;;;;;;5079731;28;20409;-61
2022/01/11 10:43:44;;;;;;;12.23;4.85;;;11.40;99.90;;;;;;5079351;28;20520;-61
2022/01/11 10:46:21;;;;;;;15.95;5.60;;;11.50;99.90;;;;;;5063418;28;20040;-61
2022/01/11 10:48:58;;;;;;;14.93;6.07;;;11.40;99.90;;;;;;5079156;28;20455;-61
2022/01/11 10:51:25;;;;;;;17.90;5.60;;;11.40;99.90;;;;;;5078811;28;20121;-61
2022/01/11 10:53:54;;;;;;;13.45;6.70;;;11.40;99.90;;;;;;5095177;28;20056;-61
2022/01/11 10:56:39;;;;;;;8.02;5.00;;;11.50;99.90;;;;;;5079141;28;20039;-61
2022/01/11 10:59:10;;;;;;;10.85;4.85;;;11.50;99.90;;;;;;5095587;28;20058;-61
2022/01/11 11:01:44;;;;;;;;;;;11.60;99.90;;;;;;5063245;28;20046;-61
2022/01/11 11:04:43;;;;;;;13.02;5.53;;;11.70;99.90;;;;;;5095345;28;19919;-61
2022/01/11 11:07:22;;;;;;;12.25;5.88;;;11.70;99.90;;;;;;5083811;28;20131;-62
2022/01/11 11:10:04;;;;;;;11.02;5.35;;;11.60;99.90;;;;;;5097939;28;20048;-61
2022/01/11 11:12:32;;;;;;;10.80;6.15;;;11.70;99.90;;;;;;5066200;28;20050;-61
2022/01/11 11:15:07;;;;;;;8.80;5.13;;;11.70;99.90;;;;;;5083387;28;20048;-61
2022/01/11 11:17:40;;;;;;;11.40;6.93;;;11.70;99.90;;;;;;5081808;28;20047;-61
2022/01/11 11:20:19;;;;;;;14.25;6.85;;;11.70;99.90;;;;;;5067576;28;20138;-61
2022/01/11 11:22:47;;;;;;;12.32;5.60;;;11.80;99.90;;;;;;5117393;28;20130;-62
2022/01/11 11:25:14;;;;;;;10.80;5.18;;;11.80;99.90;;;;;;5099488;28;20478;-61
2022/01/11 11:27:42;;;;;;;12.15;5.03;;;11.80;99.90;;;;;;5099206;28;20044;-60
2022/01/11 11:30:10;;;;;;;14.93;6.40;;;11.80;99.90;;;;;;5117136;28;20104;-60
2022/01/11 11:32:38;;;;;;;15.57;5.80;;;11.80;99.90;;;;;;5099255;28;20126;-60
2022/01/11 11:35:06;;;;;;;12.55;6.30;;;11.90;99.90;;;;;;5082050;28;20040;-60
2022/01/11 11:37:37;;;;;;;12.55;7.05;;;12.00;99.90;;;;;;5081854;28;20079;-60
2022/01/11 11:40:17;;;;;;;12.18;6.65;;;12.10;99.90;;;;;;5065570;28;20413;-61
2022/01/11 11:42:46;;;;;;;14.60;6.45;;;12.20;99.90;;;;;;5081576;28;20043;-61
2022/01/11 11:45:20;;;;;;;10.32;5.63;;;12.20;99.90;;;;;;5098945;28;20108;-61
2022/01/11 11:47:47;;;;;;;9.93;5.38;;;12.20;99.90;;;;;;5116946;28;20044;-61
2022/01/11 11:50:21;;;;;;;9.95;5.03;;;12.20;99.90;;;;;;5098764;28;20052;-61
2022/01/11 11:52:53;;;;;;;15.55;6.60;;;12.20;99.90;;;;;;5098757;28;20059;-61
2022/01/11 11:55:33;;;;;;;12.88;6.00;;;12.20;99.90;;;;;;5116937;28;20385;-61
2022/01/11 11:58:22;;;;;;;15.35;5.72;;;12.20;99.90;;;;;;5116856;28;20052;-61
2022/01/11 12:00:53;;;;;;;10.10;5.82;;;12.20;99.90;;;;;;5116768;28;20138;-61
2022/01/11 12:03:25;;;;;;;22.48;6.70;;;12.30;99.90;;;;;;5098744;28;20039;-61
2022/01/11 12:05:54;;;;;;;15.05;6.90;;;12.30;99.90;;;;;;5081638;28;20044;-61
2022/01/11 12:08:38;;;;;;;13.40;6.28;;;12.30;99.90;;;;;;5098619;28;20112;-61
2022/01/11 12:11:17;;;;;;;18.77;6.10;;;12.40;99.90;;;;;;5098520;28;20109;-60
2022/01/11 12:13:53;;;;;;;13.93;5.97;;;12.50;99.90;;;;;;5116261;28;20097;-61
2022/01/11 12:16:25;;;;;;;19.42;6.30;;;12.40;99.90;;;;;;5097923;28;20042;-62
2022/01/11 12:19:02;;;;;;;12.57;6.60;;;12.50;99.90;;;;;;5081338;28;20040;-61
2022/01/11 12:21:58;;;;;;;14.82;6.72;;;12.50;99.90;;;;;;5097970;28;20055;-61
2022/01/11 12:24:38;;;;;;;20.52;6.05;;;12.50;99.90;;;;;;5079612;28;20039;-61
2022/01/11 12:27:09;;;;;;;13.20;6.65;;;12.60;99.90;;;;;;5098193;28;20130;-60
2022/01/11 12:29:50;;;;;;;14.05;6.82;;;12.60;99.90;;;;;;5115936;28;20381;-62
2022/01/11 12:32:19;;;;;;;11.30;6.45;;;12.70;99.90;;;;;;5097627;28;20043;-61
2022/01/11 12:34:46;;;;;;;12.02;6.13;;;12.70;99.90;;;;;;5097977;28;20105;-60
2022/01/11 12:37:32;;;;;;;9.65;5.30;;;12.80;99.90;;;;;;5115739;28;20077;-61
2022/01/11 12:40:20;;;;;;;16.80;5.90;;;13.00;99.90;;;;;;5098126;28;20393;-61
2022/01/11 12:42:53;;;;;;;13.05;6.15;;;12.90;99.90;;;;;;5064246;28;20043;-60
2022/01/11 12:45:58;;;;;;;16.65;5.68;;;12.80;99.90;;;;;;5097411;28;20052;-60
2022/01/11 12:48:49;;;;;;;10.50;4.88;;;12.70;99.90;;;;;;5097595;28;20043;-61
2022/01/11 12:51:21;;;;;;;16.33;6.22;;;12.60;99.90;;;;;;5081008;28;20035;-60
2022/01/11 12:54:06;;;;;;;20.02;5.85;;;12.60;99.90;;;;;;5097282;28;20040;-60
2022/01/11 12:56:37;;;;;;;10.43;5.25;;;12.60;99.90;;;;;;5080593;28;20607;-60
2022/01/11 12:59:05;;;;;;;11.98;6.20;;;12.50;99.90;;;;;;5063783;28;20048;-60
2022/01/11 13:01:33;;;;;;;11.75;5.35;;;12.50;99.90;;;;;;5097495;28;20036;-60
2022/01/11 13:04:02;;;;;;;19.88;6.45;;;12.60;99.90;;;;;;5097108;28;20055;-60
2022/01/11 13:06:32;;;;;;;12.52;5.35;;;12.50;99.90;;;;;;5115631;28;20044;-60